createdAt,value
2022-12-08T00:00:51.327Z,82.74
2022-12-08T00:03:21.039Z,82.30
2022-12-08T00:06:04.386Z,82.41
2022-12-08T00:08:46.446Z,82.37
2022-12-08T00:11:16.478Z,82.45
2022-12-08T00:13:45.969Z,82.40
2022-12-08T00:16:18.052Z,82.06
2022-12-08T00:18:47.807Z,82.01
2022-12-08T00:21:17.362Z,82.35
2022-12-08T00:23:47.112Z,82.32
2022-12-08T00:26:16.615Z,82.60
2022-12-08T00:28:46.174Z,82.09
2022-12-08T00:31:18.322Z,82.27
2022-12-08T00:33:48.004Z,81.96
2022-12-08T00:36:18.218Z,81.64
2022-12-08T00:38:48.455Z,81.51
2022-12-08T00:41:40.013Z,81.34
2022-12-08T00:44:09.909Z,80.89
2022-12-08T00:46:42.369Z,81.15
2022-12-08T00:49:12.501Z,81.01
2022-12-08T00:51:42.105Z,80.77
2022-12-08T00:54:11.887Z,80.89
2022-12-08T00:56:41.530Z,80.68
2022-12-08T00:59:11.275Z,80.93
2022-12-08T01:01:43.929Z,80.30
2022-12-08T01:04:15.563Z,80.17
2022-12-08T01:06:46.115Z,80.66
2022-12-08T01:09:17.885Z,80.50
2022-12-08T01:11:47.916Z,80.35
2022-12-08T01:14:17.822Z,80.64
2022-12-08T01:16:50.185Z,80.57
2022-12-08T01:19:20.562Z,80.76
2022-12-08T01:21:50.395Z,80.98
2022-12-08T01:24:22.198Z,80.97
2022-12-08T01:26:52.855Z,81.62
2022-12-08T01:29:22.492Z,82.35
2022-12-08T01:31:54.567Z,83.14
2022-12-08T01:34:24.113Z,82.89
2022-12-08T01:36:53.761Z,83.59
2022-12-08T01:39:23.331Z,83.27
2022-12-08T01:41:52.886Z,83.86
2022-12-08T01:44:52.539Z,84.03
2022-12-08T01:47:26.840Z,84.37
2022-12-08T01:49:56.513Z,84.20
2022-12-08T01:52:29.498Z,84.53
2022-12-08T01:55:03.324Z,83.94
2022-12-08T01:57:37.634Z,83.95
2022-12-08T02:00:10.534Z,84.08
2022-12-08T02:02:52.748Z,84.39
2022-12-08T02:05:25.050Z,83.72
2022-12-08T02:07:55.197Z,83.92
2022-12-08T02:10:26.703Z,83.76
2022-12-08T02:12:59.235Z,84.24
2022-12-08T02:15:36.711Z,83.54
2022-12-08T02:18:23.290Z,83.61
2022-12-08T02:20:59.529Z,83.55
2022-12-08T02:23:39.340Z,83.94
2022-12-08T02:26:41.567Z,83.55
2022-12-08T02:29:38.357Z,83.03
2022-12-08T02:32:26.549Z,83.29
2022-12-08T02:35:02.326Z,82.90
2022-12-08T02:37:37.238Z,82.85
2022-12-08T02:40:16.636Z,83.48
2022-12-08T02:42:49.715Z,83.26
2022-12-08T02:45:25.305Z,82.99
2022-12-08T02:47:55.409Z,83.34
2022-12-08T02:50:27.555Z,83.29
2022-12-08T02:52:57.778Z,82.61
2022-12-08T02:55:30.338Z,82.49
2022-12-08T02:58:14.227Z,82.42
2022-12-08T03:01:00.008Z,82.36
2022-12-08T03:03:38.044Z,82.40
2022-12-08T03:06:19.663Z,81.77
2022-12-08T03:08:54.427Z,81.94
2022-12-08T03:11:27.482Z,81.74
2022-12-08T03:14:02.085Z,81.63
2022-12-08T03:16:33.577Z,81.97
2022-12-08T03:19:06.327Z,81.70
2022-12-08T03:21:38.680Z,81.53
2022-12-08T03:24:12.656Z,81.25
2022-12-08T03:26:48.539Z,81.08
2022-12-08T03:29:18.234Z,81.26
2022-12-08T03:31:55.542Z,81.02
2022-12-08T03:34:28.285Z,81.09
2022-12-08T03:37:02.862Z,81.44
2022-12-08T03:39:32.369Z,81.05
2022-12-08T03:42:01.946Z,80.77
2022-12-08T03:44:31.726Z,81.29
2022-12-08T03:47:01.308Z,81.24
2022-12-08T03:49:30.860Z,81.12
2022-12-08T03:52:03.057Z,81.14
2022-12-08T03:54:32.591Z,81.10
2022-12-08T03:57:02.173Z,80.96
2022-12-08T03:59:31.697Z,80.79
2022-12-08T04:02:01.292Z,80.40
2022-12-08T04:04:31.197Z,80.68
2022-12-08T04:07:03.362Z,80.79
2022-12-08T04:09:33.067Z,80.68
2022-12-08T04:12:02.612Z,81.03
2022-12-08T04:14:32.243Z,80.95
2022-12-08T04:17:01.820Z,80.95
2022-12-08T04:19:31.580Z,80.89
2022-12-08T04:22:03.689Z,80.88
2022-12-08T04:24:33.166Z,80.85
2022-12-08T04:27:02.701Z,80.69
2022-12-08T04:29:32.230Z,81.00
2022-12-08T04:32:01.701Z,81.29
2022-12-08T04:34:31.183Z,81.54
2022-12-08T04:37:03.242Z,81.48
2022-12-08T04:39:32.718Z,80.89
2022-12-08T04:42:02.322Z,80.97
2022-12-08T04:44:31.783Z,80.85
2022-12-08T04:47:01.367Z,80.72
2022-12-08T04:49:30.959Z,81.12
2022-12-08T04:52:03.062Z,80.95
2022-12-08T04:54:32.679Z,80.29
2022-12-08T04:57:02.189Z,80.76
2022-12-08T04:59:31.709Z,80.89
2022-12-08T05:02:01.373Z,80.86
2022-12-08T05:04:30.993Z,80.55
2022-12-08T05:07:03.045Z,80.50
2022-12-08T05:09:32.703Z,80.47
2022-12-08T05:12:02.221Z,80.80
2022-12-08T05:14:31.733Z,80.88
2022-12-08T05:17:06.249Z,80.76
2022-12-08T05:19:38.750Z,80.14
2022-12-08T05:22:10.789Z,80.49
2022-12-08T05:24:47.009Z,80.46
2022-12-08T05:27:17.063Z,80.56
2022-12-08T05:29:48.150Z,80.64
2022-12-08T05:32:17.664Z,81.02
2022-12-08T05:34:47.318Z,80.85
2022-12-08T05:37:19.453Z,80.86
2022-12-08T05:39:49.029Z,81.01
2022-12-08T05:42:24.382Z,81.35
2022-12-08T05:44:54.393Z,81.12
2022-12-08T05:47:23.896Z,81.56
2022-12-08T05:49:53.402Z,81.66
2022-12-08T05:52:25.507Z,81.71
2022-12-08T05:54:55.006Z,81.83
2022-12-08T05:57:24.581Z,81.61
2022-12-08T05:59:54.145Z,81.48
2022-12-08T06:02:23.785Z,81.94
2022-12-08T06:04:53.362Z,81.85
2022-12-08T06:07:25.529Z,81.78
2022-12-08T06:09:55.107Z,81.90
2022-12-08T06:12:24.627Z,81.82
2022-12-08T06:14:54.331Z,81.73
2022-12-08T06:17:23.936Z,81.83
2022-12-08T06:19:53.426Z,82.10
2022-12-08T06:22:25.497Z,82.14
2022-12-08T06:24:55.054Z,82.45
2022-12-08T06:27:24.589Z,82.70
2022-12-08T06:29:54.187Z,83.19
2022-12-08T06:32:27.397Z,82.93
2022-12-08T06:34:57.632Z,82.94
2022-12-08T06:37:30.010Z,83.09
2022-12-08T06:39:59.655Z,82.77
2022-12-08T06:42:41.674Z,83.09
2022-12-08T06:45:13.066Z,82.95
2022-12-08T06:47:42.651Z,82.88
2022-12-08T06:50:15.867Z,83.38
2022-12-08T06:53:00.775Z,83.16
2022-12-08T06:58:24.116Z,83.36
2022-12-08T07:00:53.879Z,83.23
2022-12-08T07:03:23.696Z,83.22
2022-12-08T07:05:53.409Z,83.12
2022-12-08T07:08:25.893Z,84.30
2022-12-08T07:10:55.579Z,84.18
2022-12-08T07:13:25.201Z,84.06
2022-12-08T07:15:55.082Z,84.56
2022-12-08T07:18:24.700Z,84.51
2022-12-08T07:20:54.241Z,84.82
2022-12-08T07:23:26.368Z,84.39
2022-12-08T07:25:55.969Z,84.02
2022-12-08T07:28:25.624Z,84.80
2022-12-08T07:30:55.196Z,84.97
2022-12-08T07:33:24.814Z,85.28
2022-12-08T07:35:58.395Z,84.84
2022-12-08T07:38:31.643Z,85.13
2022-12-08T07:41:02.587Z,85.86
2022-12-08T07:43:32.172Z,85.94
2022-12-08T07:46:01.843Z,85.52
2022-12-08T07:48:31.355Z,86.06
2022-12-08T07:51:03.627Z,85.81
2022-12-08T07:53:36.002Z,86.11
2022-12-08T07:56:08.776Z,86.40
2022-12-08T07:58:38.139Z,86.23
2022-12-08T08:01:08.302Z,86.20
2022-12-08T08:03:38.069Z,85.45
2022-12-08T08:06:08.506Z,85.48
2022-12-08T08:08:40.600Z,84.87
2022-12-08T08:11:18.938Z,85.42
2022-12-08T08:13:50.734Z,86.26
2022-12-08T08:16:21.611Z,85.99
2022-12-08T08:18:51.872Z,86.34
2022-12-08T08:24:15.682Z,86.59
2022-12-08T08:26:45.250Z,86.32
2022-12-08T08:29:14.856Z,86.29
2022-12-08T08:31:44.429Z,86.70
2022-12-08T08:34:14.147Z,86.50
2022-12-08T08:36:43.935Z,86.82
2022-12-08T08:39:16.236Z,86.86
2022-12-08T08:41:46.086Z,86.17
2022-12-08T08:44:16.173Z,86.36
2022-12-08T08:46:45.776Z,86.38
2022-12-08T08:49:15.387Z,86.08
2022-12-08T08:51:45.199Z,86.27
2022-12-08T08:54:17.386Z,86.13
2022-12-08T08:56:48.270Z,85.69
2022-12-08T08:59:17.954Z,86.27
2022-12-08T09:01:47.600Z,85.93
2022-12-08T09:04:17.423Z,85.40
2022-12-08T09:06:48.136Z,85.37
2022-12-08T09:09:20.829Z,85.08
2022-12-08T09:11:50.149Z,84.82
2022-12-08T09:14:19.651Z,84.90
2022-12-08T09:16:49.226Z,85.16
2022-12-08T09:19:18.774Z,84.86
2022-12-08T09:21:48.507Z,84.33
2022-12-08T09:24:20.622Z,84.02
2022-12-08T09:26:50.176Z,84.29
2022-12-08T09:29:19.992Z,84.79
2022-12-08T09:31:49.728Z,84.58
2022-12-08T09:34:19.713Z,85.10
2022-12-08T09:36:49.773Z,84.25
2022-12-08T09:39:22.682Z,84.02
2022-12-08T09:42:01.483Z,84.46
2022-12-08T09:44:44.833Z,83.88
2022-12-08T09:47:23.996Z,83.44
2022-12-08T09:50:04.508Z,83.73
2022-12-08T09:52:39.201Z,83.61
2022-12-08T09:55:18.300Z,83.85
2022-12-08T09:57:53.076Z,84.57
2022-12-08T10:00:25.997Z,83.60
2022-12-08T10:02:55.546Z,83.47
2022-12-08T10:05:26.996Z,82.73
2022-12-08T10:08:06.554Z,82.68
2022-12-08T10:10:44.550Z,82.71
2022-12-08T10:13:22.227Z,82.63
2022-12-08T10:16:00.300Z,83.50
2022-12-08T10:18:32.983Z,83.12
2022-12-08T10:21:18.881Z,82.99
2022-12-08T10:23:52.898Z,82.68
2022-12-08T10:26:25.188Z,83.02
2022-12-08T10:29:01.148Z,82.94
2022-12-08T10:31:32.712Z,82.69
2022-12-08T10:34:04.438Z,83.14
2022-12-08T10:36:48.922Z,82.59
2022-12-08T10:39:36.124Z,82.85
2022-12-08T10:42:11.647Z,82.01
2022-12-08T10:44:55.827Z,82.66
2022-12-08T10:47:28.232Z,81.72
2022-12-08T10:50:15.098Z,81.93
2022-12-08T10:52:44.601Z,81.96
2022-12-08T10:55:19.450Z,82.58
2022-12-08T10:57:51.718Z,82.23
2022-12-08T11:00:23.923Z,82.23
2022-12-08T11:02:56.746Z,82.20
2022-12-08T11:05:30.569Z,81.62
2022-12-08T11:08:00.426Z,81.66
2022-12-08T11:10:37.087Z,81.98
2022-12-08T11:13:19.981Z,81.61
2022-12-08T11:15:49.734Z,81.28
2022-12-08T11:18:28.734Z,80.22
2022-12-08T11:21:09.673Z,80.91
2022-12-08T11:23:40.412Z,81.69
2022-12-08T11:26:19.285Z,81.08
2022-12-08T11:28:51.387Z,81.02
2022-12-08T11:31:30.382Z,81.89
2022-12-08T11:34:00.005Z,80.55
2022-12-08T11:36:34.214Z,80.92
2022-12-08T11:39:07.215Z,80.47
2022-12-08T11:41:41.585Z,80.57
2022-12-08T11:44:28.501Z,80.39
2022-12-08T11:47:00.940Z,80.00
2022-12-08T11:49:37.020Z,80.04
2022-12-08T11:52:15.661Z,80.40
2022-12-08T11:54:50.671Z,80.67
2022-12-08T11:57:20.947Z,79.56
2022-12-08T11:59:54.795Z,79.75
2022-12-08T12:02:27.371Z,79.79
2022-12-08T12:05:02.133Z,79.88
2022-12-08T12:07:49.082Z,79.66
2022-12-08T12:10:39.697Z,79.35
2022-12-08T12:13:22.009Z,79.93
2022-12-08T12:16:38.593Z,79.25
2022-12-08T12:19:14.913Z,78.79
2022-12-08T12:21:47.431Z,79.77
2022-12-08T12:24:26.068Z,79.51
2022-12-08T12:27:02.318Z,80.22
2022-12-08T12:29:34.929Z,79.46
2022-12-08T12:32:11.446Z,79.36
2022-12-08T12:34:51.060Z,79.51
2022-12-08T12:37:24.376Z,80.43
2022-12-08T12:40:00.963Z,79.60
2022-12-08T12:42:44.769Z,79.88
2022-12-08T12:45:32.490Z,79.77
2022-12-08T12:48:27.341Z,79.17
2022-12-08T12:50:57.895Z,79.73
2022-12-08T12:53:52.938Z,80.16
2022-12-08T12:56:50.919Z,79.65
2022-12-08T13:00:08.629Z,80.02
2022-12-08T13:02:41.628Z,79.19
2022-12-08T13:05:19.357Z,79.25
2022-12-08T13:07:55.366Z,79.79
2022-12-08T13:10:28.733Z,79.23
2022-12-08T13:13:17.755Z,79.72
2022-12-08T13:15:53.436Z,79.80
2022-12-08T13:18:26.579Z,79.00
2022-12-08T13:21:08.044Z,79.02
2022-12-08T13:23:49.859Z,78.56
2022-12-08T13:26:22.725Z,79.12
2022-12-08T13:29:17.732Z,79.16
2022-12-08T13:31:51.261Z,78.56
2022-12-08T13:34:32.855Z,78.99
2022-12-08T13:37:20.810Z,79.33
2022-12-08T13:39:54.775Z,79.08
2022-12-08T13:42:32.168Z,79.09
2022-12-08T13:57:06.865Z,79.44
2022-12-08T13:59:46.578Z,79.83
2022-12-08T14:02:20.699Z,80.25
2022-12-08T14:07:42.773Z,79.84
2022-12-08T14:10:20.773Z,79.91
2022-12-08T14:12:57.626Z,80.17
2022-12-08T14:15:31.365Z,80.78
2022-12-08T14:18:05.586Z,80.63
2022-12-08T14:20:57.883Z,80.76
2022-12-08T14:23:26.402Z,80.82
2022-12-08T14:25:59.308Z,80.72
2022-12-08T14:28:28.852Z,80.94
2022-12-08T14:30:58.779Z,81.26
2022-12-08T14:33:29.089Z,80.54
2022-12-08T14:35:59.421Z,81.23
2022-12-08T14:38:29.392Z,81.31
2022-12-08T14:41:09.544Z,81.02
2022-12-08T14:43:41.057Z,81.35
2022-12-08T14:46:23.322Z,81.16
2022-12-08T14:48:53.678Z,81.60
2022-12-08T14:51:30.245Z,81.85
2022-12-08T14:54:02.202Z,81.60
2022-12-08T14:56:39.521Z,81.69
2022-12-08T14:59:15.312Z,81.42
2022-12-08T15:01:45.794Z,81.63
2022-12-08T15:04:21.496Z,81.22
2022-12-08T15:06:55.680Z,82.01
2022-12-08T15:12:08.942Z,81.71
2022-12-08T15:14:39.984Z,81.89
2022-12-08T15:20:04.484Z,82.19
2022-12-08T15:22:34.506Z,82.56
2022-12-08T15:25:04.688Z,82.67
2022-12-08T15:27:49.579Z,82.58
2022-12-08T15:30:20.942Z,82.42
2022-12-08T15:32:52.380Z,82.90
2022-12-08T15:35:22.553Z,82.70
2022-12-08T15:37:52.065Z,82.87
2022-12-08T15:40:27.040Z,82.92
2022-12-08T15:42:59.156Z,82.91
2022-12-08T15:45:33.655Z,83.78
2022-12-08T15:48:03.632Z,84.05
2022-12-08T15:50:33.170Z,83.70
2022-12-08T15:53:02.743Z,83.96
2022-12-08T15:55:38.490Z,83.54
2022-12-08T15:58:53.157Z,83.08
2022-12-08T16:01:16.356Z,82.76
2022-12-08T16:09:32.984Z,83.56
2022-12-08T16:12:15.263Z,83.39
2022-12-08T16:15:47.223Z,83.04
2022-12-08T16:17:38.258Z,82.81
2022-12-08T16:20:09.825Z,82.60
2022-12-08T16:23:07.602Z,82.47
2022-12-08T16:25:46.028Z,82.36
2022-12-08T16:28:52.166Z,82.44
2022-12-08T16:31:17.742Z,82.89
2022-12-08T16:33:50.960Z,83.11
2022-12-08T16:36:20.506Z,82.99
2022-12-08T16:38:50.005Z,83.20
2022-12-08T16:41:33.288Z,83.32
2022-12-08T16:44:05.191Z,83.63
2022-12-08T16:46:37.530Z,84.49
2022-12-08T16:49:07.324Z,84.49
2022-12-08T16:51:36.847Z,84.76
2022-12-08T16:54:06.458Z,85.03
2022-12-08T16:56:35.958Z,85.10
2022-12-08T16:59:05.463Z,84.94
2022-12-08T17:01:37.606Z,84.88
2022-12-08T17:04:30.953Z,85.20
2022-12-08T17:06:57.823Z,85.00
2022-12-08T17:09:28.573Z,84.69
2022-12-08T17:12:03.479Z,84.46
2022-12-08T17:14:35.469Z,84.42
2022-12-08T17:17:07.632Z,84.35
2022-12-08T17:19:37.259Z,84.45
2022-12-08T17:22:07.158Z,84.56
2022-12-08T17:24:36.690Z,84.88
2022-12-08T17:27:06.826Z,85.16
2022-12-08T17:29:37.214Z,85.89
2022-12-08T17:32:09.801Z,86.07
2022-12-08T17:34:39.327Z,86.12
2022-12-08T17:37:08.906Z,85.81
2022-12-08T17:39:39.360Z,85.84
2022-12-08T17:42:09.855Z,85.94
2022-12-08T17:44:39.545Z,86.15
2022-12-08T17:47:11.775Z,85.89
2022-12-08T17:49:41.520Z,85.46
2022-12-08T17:52:11.284Z,85.32
2022-12-08T17:54:41.278Z,85.07
2022-12-08T17:57:10.801Z,84.79
2022-12-08T17:59:40.575Z,85.16
2022-12-08T18:02:15.164Z,85.59
2022-12-08T18:04:44.768Z,85.72
2022-12-08T18:07:14.349Z,85.71
2022-12-08T18:09:43.929Z,86.14
2022-12-08T18:12:13.465Z,86.16
2022-12-08T18:14:43.076Z,86.13
2022-12-08T18:17:15.508Z,86.34
2022-12-08T18:19:45.036Z,86.48
2022-12-08T18:22:16.017Z,86.48
2022-12-08T18:24:47.630Z,86.70
2022-12-08T18:27:17.170Z,86.91
2022-12-08T18:29:46.801Z,86.67
2022-12-08T18:32:22.700Z,87.05
2022-12-08T18:34:52.496Z,87.30
2022-12-08T18:37:22.055Z,87.44
2022-12-08T18:39:51.716Z,87.44
2022-12-08T18:42:28.310Z,87.19
2022-12-08T18:45:02.787Z,87.03
2022-12-08T18:47:36.228Z,87.16
2022-12-08T18:50:06.611Z,87.21
2022-12-08T18:52:36.952Z,87.42
2022-12-08T18:55:07.777Z,87.57
2022-12-08T18:57:39.027Z,87.40
2022-12-08T19:00:12.227Z,87.41
2022-12-08T19:02:45.267Z,87.11
2022-12-08T19:05:16.054Z,86.98
2022-12-08T19:07:45.967Z,86.61
2022-12-08T19:10:16.143Z,86.38
2022-12-08T19:12:45.671Z,86.50
2022-12-08T19:15:15.426Z,86.64
2022-12-08T19:17:47.570Z,86.62
2022-12-08T19:20:17.422Z,86.72
2022-12-08T19:22:46.991Z,86.54
2022-12-08T19:25:16.465Z,86.38
2022-12-08T19:27:46.219Z,86.59
2022-12-08T19:30:17.194Z,86.55
2022-12-08T19:32:49.336Z,86.89
2022-12-08T19:35:19.083Z,86.92
2022-12-08T19:37:48.592Z,87.20
2022-12-08T19:40:30.853Z,87.29
2022-12-08T19:43:12.967Z,87.60
2022-12-08T19:45:42.507Z,87.64
2022-12-08T19:48:14.711Z,87.60
2022-12-08T19:50:44.191Z,87.63
2022-12-08T19:53:15.557Z,87.64
2022-12-08T19:55:46.753Z,87.83
2022-12-08T19:58:16.633Z,87.73
2022-12-08T20:00:46.681Z,87.82
2022-12-08T20:03:21.404Z,87.90
2022-12-08T20:05:53.290Z,88.02
2022-12-08T20:08:22.962Z,88.02
2022-12-08T20:10:56.121Z,87.92
2022-12-08T20:13:38.149Z,87.81
2022-12-08T20:16:08.594Z,87.58
2022-12-08T20:18:42.082Z,87.38
2022-12-08T20:21:12.699Z,88.11
2022-12-08T20:23:42.228Z,88.12
2022-12-08T20:26:17.439Z,87.80
2022-12-08T20:28:47.123Z,87.62
2022-12-08T20:31:24.883Z,87.52
2022-12-08T20:33:57.323Z,87.57
2022-12-08T20:36:26.942Z,87.82
2022-12-08T20:38:57.430Z,87.74
2022-12-08T20:41:27.356Z,87.99
2022-12-08T20:43:56.935Z,88.00
2022-12-08T20:46:26.522Z,88.13
2022-12-08T20:49:01.219Z,88.14
2022-12-08T20:51:32.201Z,88.26
2022-12-08T20:54:02.469Z,88.33
2022-12-08T20:56:32.201Z,88.32
2022-12-08T20:59:02.413Z,88.43
2022-12-08T21:01:32.139Z,88.38
2022-12-08T21:04:04.623Z,88.34
2022-12-08T21:06:34.445Z,88.55
2022-12-08T21:09:04.248Z,88.37
2022-12-08T21:11:34.124Z,88.28
2022-12-08T21:14:03.901Z,88.48
2022-12-08T21:16:33.966Z,88.45
2022-12-08T21:19:06.445Z,88.48
2022-12-08T21:21:36.490Z,88.62
2022-12-08T21:24:06.883Z,88.64
2022-12-08T21:26:36.587Z,88.63
2022-12-08T21:29:06.937Z,88.62
2022-12-08T21:31:36.713Z,88.73
2022-12-08T21:34:08.909Z,88.56
2022-12-08T21:36:38.509Z,88.73
2022-12-08T21:39:12.828Z,88.85
2022-12-08T21:41:55.081Z,88.85
2022-12-08T21:44:24.665Z,88.85
2022-12-08T21:46:55.095Z,88.90
2022-12-08T21:49:27.543Z,88.77
2022-12-08T21:51:57.583Z,88.81
2022-12-08T21:54:27.448Z,88.80
2022-12-08T21:56:57.446Z,88.80
2022-12-08T21:59:27.227Z,88.72
2022-12-08T22:01:56.921Z,88.67
2022-12-08T22:04:29.321Z,88.61
2022-12-08T22:06:59.363Z,88.61
2022-12-08T22:09:29.039Z,88.28
2022-12-08T22:11:58.728Z,88.64
2022-12-08T22:14:28.366Z,88.55
2022-12-08T22:16:57.999Z,88.75
2022-12-08T22:19:30.268Z,88.91
2022-12-08T22:21:59.952Z,89.05
2022-12-08T22:24:29.745Z,89.19
2022-12-08T22:26:59.576Z,89.06
2022-12-08T22:29:29.311Z,89.13
2022-12-08T22:31:59.091Z,88.83
2022-12-08T22:34:31.388Z,89.08
2022-12-08T22:37:01.098Z,88.87
2022-12-08T22:39:30.775Z,89.05
2022-12-08T22:42:00.414Z,88.84
2022-12-08T22:44:30.326Z,88.87
2022-12-08T22:47:00.385Z,88.99
2022-12-08T22:49:32.912Z,89.00
2022-12-08T22:52:02.576Z,89.20
2022-12-08T22:54:32.515Z,89.30
2022-12-08T22:57:02.282Z,89.49
2022-12-08T22:59:33.367Z,89.57
2022-12-08T23:02:03.132Z,89.47
2022-12-08T23:04:35.688Z,89.77
2022-12-08T23:07:06.049Z,89.53
2022-12-08T23:09:35.550Z,89.53
2022-12-08T23:12:05.091Z,89.51
2022-12-08T23:14:34.566Z,89.50
2022-12-08T23:17:06.303Z,89.43
2022-12-08T23:19:41.550Z,89.64
2022-12-08T23:22:11.092Z,90.04
2022-12-08T23:24:40.568Z,89.72
2022-12-08T23:27:10.285Z,89.88
2022-12-08T23:29:40.402Z,89.89
2022-12-08T23:32:09.958Z,89.87
2022-12-08T23:34:42.226Z,89.82
2022-12-08T23:37:11.768Z,89.90
2022-12-08T23:39:41.275Z,89.95
2022-12-08T23:42:11.106Z,89.98
2022-12-08T23:44:40.739Z,89.70
2022-12-08T23:47:10.403Z,89.64
2022-12-08T23:49:42.601Z,90.00
2022-12-08T23:52:14.835Z,89.89
2022-12-08T23:54:44.921Z,89.63
2022-12-08T23:57:14.744Z,89.75
2022-12-08T23:59:44.269Z,89.86
